Time;durP1;ratioP1;P1;durP2;ratioP2;P2;SDS_P1;SDS_P2;PMS_P1;PMS_P2;Temp;Humidity;BMP_temperature;BMP_pressure;BME280_temperature;BME280_humidity;BME280_pressure;Samples;Min_cycle;Max_cycle;Signal;HPM_P1;HPM_P2
2022/05/10 00:00:54;;;;;;;3.78;2.60;;;17.80;50.40;;;;;;5052961;28;20024;-81
2022/05/10 00:03:22;;;;;;;3.77;2.50;;;17.70;50.70;;;;;;5053136;28;20078;-81
2022/05/10 00:05:47;;;;;;;3.95;2.75;;;17.70;50.90;;;;;;5057708;28;20468;-81
2022/05/10 00:08:15;;;;;;;3.75;2.50;;;17.60;50.90;;;;;;5040239;28;20032;-81
2022/05/10 00:10:42;;;;;;;3.70;2.40;;;17.50;51.00;;;;;;5045494;28;20127;-81
2022/05/10 00:13:08;;;;;;;3.25;2.47;;;17.50;51.30;;;;;;5044457;28;20020;-81
2022/05/10 00:15:34;;;;;;;4.18;2.33;;;17.40;51.30;;;;;;5059008;28;20101;-81
2022/05/10 00:18:00;;;;;;;4.43;2.60;;;17.40;51.40;;;;;;5044713;28;20114;-81
2022/05/10 00:20:26;;;;;;;3.80;2.63;;;17.40;51.50;;;;;;5051344;28;20032;-81
2022/05/10 00:22:52;;;;;;;3.67;2.30;;;17.30;51.60;;;;;;5044734;28;20169;-81
2022/05/10 00:25:23;;;;;;;5.25;2.85;;;17.30;51.70;;;;;;5039656;28;20037;-81
2022/05/10 00:27:48;;;;;;;3.63;2.57;;;17.20;52.30;;;;;;5055520;28;20301;-81
2022/05/10 00:30:14;;;;;;;4.80;2.70;;;17.20;52.00;;;;;;5061999;28;20028;-81
2022/05/10 00:32:40;;;;;;;5.47;2.67;;;17.10;52.00;;;;;;5043861;28;20415;-81
2022/05/10 00:35:15;;;;;;;3.80;2.50;;;17.10;52.10;;;;;;5027119;28;20036;-81
2022/05/10 00:37:42;;;;;;;3.08;2.35;;;17.10;52.60;;;;;;5042613;28;20095;-81
2022/05/10 00:40:08;;;;;;;4.43;2.67;;;17.00;52.40;;;;;;5058916;28;20040;-81
2022/05/10 00:42:44;;;;;;;4.10;2.90;;;17.00;52.60;;;;;;5037960;28;20115;-81
2022/05/10 00:45:15;;;;;;;3.23;2.50;;;17.00;53.60;;;;;;5045436;28;20090;-81
2022/05/10 00:48:06;;;;;;;4.50;2.80;;;16.90;53.20;;;;;;5061385;28;20028;-81
2022/05/10 00:50:38;;;;;;;4.03;2.50;;;16.90;53.70;;;;;;5028758;28;20074;-81
2022/05/10 00:53:10;;;;;;;4.75;2.60;;;16.90;53.30;;;;;;5061807;28;20351;-81
2022/05/10 00:55:44;;;;;;;3.38;2.72;;;16.80;53.30;;;;;;5053377;28;20111;-81
2022/05/10 00:58:25;;;;;;;3.10;2.33;;;16.80;53.50;;;;;;5026834;28;20032;-81
2022/05/10 01:00:54;;;;;;;3.85;2.80;;;16.70;54.50;;;;;;5033681;28;20036;-81
2022/05/10 01:03:31;;;;;;;4.18;2.50;;;16.70;53.70;;;;;;5045705;28;20056;-81
2022/05/10 01:06:22;;;;;;;3.75;2.65;;;16.70;54.30;;;;;;5045123;28;20661;-81
2022/05/10 01:09:02;;;;;;;4.47;2.85;;;16.70;54.40;;;;;;5050239;28;20041;-81
2022/05/10 01:11:35;;;;;;;4.73;2.37;;;16.60;54.10;;;;;;5059409;28;20029;-81
2022/05/10 01:14:40;;;;;;;3.80;2.58;;;16.60;54.00;;;;;;5041045;28;20040;-81
2022/05/10 01:17:06;;;;;;;3.42;2.58;;;16.60;54.70;;;;;;5029565;28;20087;-81
2022/05/10 01:19:31;;;;;;;4.77;2.67;;;16.60;53.70;;;;;;5040788;28;20039;-81
2022/05/10 01:22:17;;;;;;;4.37;2.63;;;16.50;53.80;;;;;;5046017;28;20377;-81
2022/05/10 01:25:25;;;;;;;4.32;2.83;;;16.50;55.20;;;;;;5039069;28;20091;-81
2022/05/10 01:28:27;;;;;;;3.42;2.55;;;16.50;56.00;;;;;;5057214;28;20036;-81
2022/05/10 01:30:54;;;;;;;3.53;2.70;;;16.40;55.80;;;;;;5053640;28;20029;-81
2022/05/10 01:33:45;;;;;;;4.10;2.75;;;16.40;54.00;;;;;;5044614;28;20032;-81
2022/05/10 01:36:30;;;;;;;3.20;2.40;;;16.40;56.20;;;;;;5052612;28;20152;-81
2022/05/10 01:39:17;;;;;;;4.40;2.42;;;16.30;56.00;;;;;;5036708;28;20245;-81
2022/05/10 01:42:24;;;;;;;3.38;2.42;;;16.30;56.30;;;;;;5062596;28;20040;-81
2022/05/10 01:45:06;;;;;;;4.00;2.67;;;16.30;55.30;;;;;;5016860;28;20244;-81
2022/05/10 01:47:41;;;;;;;5.65;2.85;;;16.30;55.20;;;;;;5056444;28;20481;-81
2022/05/10 01:50:24;;;;;;;5.25;2.90;;;16.30;55.40;;;;;;5057522;28;20232;-81
2022/05/10 01:52:55;;;;;;;4.70;2.67;;;16.30;55.30;;;;;;5043503;28;22993;-81
2022/05/10 01:55:26;;;;;;;4.32;2.88;;;16.20;54.70;;;;;;5040255;28;20038;-81
2022/05/10 01:57:55;;;;;;;4.10;2.90;;;16.20;55.70;;;;;;5051945;28;20051;-81
2022/05/10 02:00:24;;;;;;;3.70;2.70;;;16.20;55.00;;;;;;5031348;28;20040;-81
2022/05/10 02:03:25;;;;;;;4.32;2.78;;;16.20;55.40;;;;;;5042055;28;20209;-81
2022/05/10 02:05:55;;;;;;;5.10;2.80;;;16.20;57.20;;;;;;5055779;28;20208;-81
2022/05/10 02:08:45;;;;;;;5.95;2.95;;;16.10;55.00;;;;;;5044026;28;20665;-81
2022/05/10 02:11:13;;;;;;;4.10;3.07;;;16.10;57.00;;;;;;5071770;28;20469;-81
2022/05/10 02:14:01;;;;;;;4.95;2.90;;;16.10;55.20;;;;;;5033879;28;20025;-81
2022/05/10 02:16:33;;;;;;;3.60;2.78;;;16.00;55.80;;;;;;5039805;28;20052;-81
2022/05/10 02:19:17;;;;;;;3.85;2.90;;;16.00;55.70;;;;;;5064895;28;20169;-81
2022/05/10 02:21:54;;;;;;;4.88;3.10;;;16.00;56.00;;;;;;5029995;28;20139;-81
2022/05/10 02:24:37;;;;;;;3.87;2.77;;;15.90;56.70;;;;;;5040536;28;20520;-81
2022/05/10 02:27:18;;;;;;;4.82;3.28;;;15.90;56.80;;;;;;5061924;28;20352;-81
2022/05/10 02:29:55;;;;;;;3.97;2.90;;;15.90;58.00;;;;;;5058149;28;20384;-81
2022/05/10 02:35:13;;;;;;;3.97;2.75;;;15.80;56.20;;;;;;5044584;28;20033;-81
2022/05/10 02:37:39;;;;;;;4.70;2.70;;;15.80;56.10;;;;;;5044288;28;20434;-81
2022/05/10 02:40:06;;;;;;;3.88;2.95;;;15.90;56.20;;;;;;5056201;28;20132;-81
2022/05/10 02:42:33;;;;;;;6.00;2.80;;;15.80;56.20;;;;;;5057360;28;20032;-81
2022/05/10 02:45:00;;;;;;;4.43;2.72;;;15.80;56.40;;;;;;5045301;28;20037;-81
2022/05/10 02:47:41;;;;;;;4.10;3.15;;;15.80;56.50;;;;;;5071195;28;20044;-81
2022/05/10 02:50:20;;;;;;;6.03;2.90;;;15.80;58.10;;;;;;5035383;28;20024;-81
2022/05/10 02:52:46;;;;;;;3.55;2.75;;;15.70;56.90;;;;;;5027871;28;20112;-81
2022/05/10 02:55:28;;;;;;;5.73;3.20;;;15.80;56.60;;;;;;5038458;28;20028;-81
2022/05/10 02:57:57;;;;;;;6.57;3.27;;;15.80;57.50;;;;;;5038361;28;21239;-81
2022/05/10 03:00:24;;;;;;;6.95;3.00;;;15.80;57.00;;;;;;5050470;28;20121;-81
2022/05/10 03:02:56;;;;;;;4.90;2.55;;;15.70;57.00;;;;;;5055121;28;20036;-81
2022/05/10 03:05:22;;;;;;;6.07;3.08;;;15.80;57.40;;;;;;5036144;28;20024;-81
2022/05/10 03:07:47;;;;;;;4.00;3.00;;;15.80;57.10;;;;;;5051137;28;20142;-81
2022/05/10 03:10:13;;;;;;;4.05;2.92;;;15.80;57.20;;;;;;5036605;28;20017;-81
2022/05/10 03:12:39;;;;;;;5.73;3.27;;;15.80;57.30;;;;;;5052012;28;20064;-81
2022/05/10 03:15:05;;;;;;;5.00;2.97;;;15.80;57.40;;;;;;5037562;28;20052;-81
2022/05/10 03:17:31;;;;;;;4.80;3.10;;;15.80;57.50;;;;;;5039284;28;20040;-81
2022/05/10 03:19:57;;;;;;;5.97;3.33;;;15.80;57.60;;;;;;5016932;28;20355;-81
2022/05/10 03:22:22;;;;;;;6.10;3.08;;;15.80;57.60;;;;;;5061776;28;20044;-81
2022/05/10 03:24:48;;;;;;;4.97;3.30;;;15.90;57.70;;;;;;5038606;28;20045;-81
2022/05/10 03:27:16;;;;;;;4.70;3.03;;;15.90;57.80;;;;;;5036809;28;20021;-81
2022/05/10 03:29:41;;;;;;;5.47;3.10;;;15.90;57.90;;;;;;5049946;28;20291;-81
2022/05/10 03:32:08;;;;;;;5.10;3.35;;;15.90;58.00;;;;;;5036793;28;20037;-81
2022/05/10 03:37:18;;;;;;;4.63;2.93;;;15.90;58.10;;;;;;5059276;28;20040;-81
2022/05/10 03:39:43;;;;;;;5.75;3.35;;;15.90;58.10;;;;;;5029748;28;20039;-81
2022/05/10 03:42:10;;;;;;;5.00;3.40;;;15.90;58.30;;;;;;5046540;28;20036;-81
2022/05/10 03:44:36;;;;;;;4.30;3.30;;;16.00;58.40;;;;;;5042419;28;20059;-81
2022/05/10 03:47:02;;;;;;;5.03;3.17;;;16.00;58.50;;;;;;5054907;28;20572;-81
2022/05/10 03:49:28;;;;;;;5.22;3.38;;;16.00;58.60;;;;;;5053377;28;20097;-81
2022/05/10 03:51:54;;;;;;;4.80;3.23;;;16.00;58.60;;;;;;5040302;28;20340;-81
2022/05/10 03:54:24;;;;;;;4.25;3.00;;;16.10;58.70;;;;;;5033892;28;20497;-81
2022/05/10 03:56:50;;;;;;;5.13;3.42;;;16.10;58.80;;;;;;5029710;28;20041;-81
2022/05/10 03:59:17;;;;;;;5.57;3.10;;;16.10;58.80;;;;;;5043926;28;20032;-81
2022/05/10 04:01:44;;;;;;;4.50;3.30;;;16.10;58.90;;;;;;5061561;28;20044;-81
2022/05/10 04:04:09;;;;;;;5.13;3.40;;;16.20;59.00;;;;;;5067240;28;20038;-81
2022/05/10 04:06:35;;;;;;;5.93;3.28;;;16.20;59.50;;;;;;5042001;28;20476;-81
2022/05/10 04:09:01;;;;;;;4.60;3.30;;;16.30;59.70;;;;;;5055976;28;20248;-81
2022/05/10 04:11:27;;;;;;;4.30;2.83;;;16.30;59.00;;;;;;5044188;28;20111;-81
2022/05/10 04:13:52;;;;;;;4.47;3.13;;;16.30;59.00;;;;;;5033055;28;20967;-81
2022/05/10 04:16:18;;;;;;;4.85;3.10;;;16.40;59.10;;;;;;5041554;28;20612;-81
2022/05/10 04:18:44;;;;;;;6.33;3.53;;;16.40;59.00;;;;;;5057462;28;20035;-81
2022/05/10 04:21:09;;;;;;;6.47;3.55;;;16.50;59.20;;;;;;5023356;28;20044;-80
2022/05/10 04:23:36;;;;;;;4.53;3.20;;;16.50;59.30;;;;;;5032729;28;20393;-81
2022/05/10 04:26:03;;;;;;;4.82;3.30;;;16.50;59.20;;;;;;5041413;28;20340;-80
2022/05/10 04:28:29;;;;;;;5.82;3.20;;;16.50;59.30;;;;;;5050574;28;20033;-81
2022/05/10 04:30:54;;;;;;;5.13;3.22;;;16.50;59.10;;;;;;5049813;28;20696;-80
2022/05/10 04:33:20;;;;;;;6.27;3.07;;;16.60;59.10;;;;;;5038286;28;20037;-81
2022/05/10 04:35:46;;;;;;;5.70;3.27;;;16.60;59.00;;;;;;5040092;28;20709;-81
2022/05/10 04:38:11;;;;;;;6.55;3.28;;;16.60;59.10;;;;;;5072492;28;20035;-81
2022/05/10 04:43:21;;;;;;;4.85;3.00;;;16.70;59.10;;;;;;5048971;28;20024;-81
2022/05/10 04:45:46;;;;;;;6.30;3.30;;;16.70;59.10;;;;;;5036687;28;20033;-80
2022/05/10 04:48:12;;;;;;;4.25;2.70;;;16.70;59.30;;;;;;5043085;28;20503;-80
2022/05/10 04:50:39;;;;;;;5.17;3.03;;;16.70;59.00;;;;;;5030945;28;20090;-80
2022/05/10 04:53:04;;;;;;;5.95;3.10;;;16.80;59.30;;;;;;5033590;28;20151;-81
2022/05/10 04:55:30;;;;;;;4.83;3.00;;;16.80;59.20;;;;;;5052277;28;20043;-81
2022/05/10 04:57:56;;;;;;;5.60;3.20;;;16.80;59.30;;;;;;5045445;28;20033;-81
2022/05/10 05:00:23;;;;;;;4.80;2.90;;;16.80;59.20;;;;;;5039675;28;20428;-80
2022/05/10 05:02:48;;;;;;;5.00;3.17;;;16.90;59.30;;;;;;5070075;28;20536;-81
2022/05/10 05:05:14;;;;;;;4.82;3.00;;;16.90;59.40;;;;;;5041798;28;20037;-80
2022/05/10 05:07:41;;;;;;;5.60;3.20;;;16.90;59.30;;;;;;5022396;28;20041;-80
2022/05/10 05:10:07;;;;;;;5.32;3.30;;;16.90;59.40;;;;;;5048305;28;20032;-80
2022/05/10 05:12:34;;;;;;;5.60;3.25;;;16.90;59.50;;;;;;5045284;28;20028;-80
2022/05/10 05:15:01;;;;;;;6.10;2.95;;;17.00;60.40;;;;;;5043397;28;20040;-80
2022/05/10 05:17:26;;;;;;;5.25;3.05;;;17.00;59.80;;;;;;5050047;28;20161;-80
2022/05/10 05:19:52;;;;;;;6.27;3.20;;;17.10;59.90;;;;;;5026854;28;20037;-80
2022/05/10 05:22:18;;;;;;;5.05;2.97;;;17.20;60.00;;;;;;5025206;28;20105;-79
2022/05/10 05:24:43;;;;;;;4.50;3.20;;;17.20;60.00;;;;;;5046902;28;20376;-80
2022/05/10 05:27:09;;;;;;;4.80;3.05;;;17.40;60.20;;;;;;5043710;28;20041;-80
2022/05/10 05:29:35;;;;;;;5.60;3.13;;;17.50;60.20;;;;;;5023499;28;20539;-81
2022/05/10 05:32:06;;;;;;;6.15;3.15;;;17.50;60.30;;;;;;5034820;28;20024;-80
2022/05/10 05:34:32;;;;;;;5.63;3.33;;;17.60;60.70;;;;;;5039733;28;20037;-80
2022/05/10 05:39:42;;;;;;;5.07;3.20;;;17.90;60.30;;;;;;5023852;28;20297;-80
2022/05/10 05:42:08;;;;;;;5.33;3.20;;;18.00;60.30;;;;;;5029256;28;20041;-80
2022/05/10 05:44:33;;;;;;;5.05;3.30;;;18.10;60.30;;;;;;5031314;28;20055;-79
2022/05/10 05:46:59;;;;;;;5.30;2.90;;;18.20;60.20;;;;;;5047271;28;20037;-80
2022/05/10 05:49:26;;;;;;;5.80;3.17;;;18.30;60.20;;;;;;5033604;28;20244;-79
2022/05/10 05:51:59;;;;;;;4.20;2.90;;;18.40;60.30;;;;;;5034020;28;20278;-80
2022/05/10 05:54:25;;;;;;;4.78;3.10;;;18.50;60.70;;;;;;5019347;28;21573;-80
2022/05/10 05:56:57;;;;;;;4.53;2.78;;;18.70;60.20;;;;;;5039685;28;20039;-80
2022/05/10 05:59:23;;;;;;;4.80;2.90;;;18.70;60.30;;;;;;5047826;28;20043;-81
2022/05/10 06:01:48;;;;;;;4.28;2.78;;;18.90;60.30;;;;;;5068142;28;20355;-80
2022/05/10 06:04:15;;;;;;;4.50;2.87;;;19.00;60.40;;;;;;5041232;28;20484;-80
2022/05/10 06:06:42;;;;;;;4.60;3.00;;;19.10;60.20;;;;;;5048350;28;20032;-80
2022/05/10 06:09:07;;;;;;;4.65;3.13;;;19.20;60.10;;;;;;5034735;28;20029;-79
2022/05/10 06:11:33;;;;;;;4.80;3.03;;;19.40;60.10;;;;;;5004906;28;20238;-80
2022/05/10 06:14:00;;;;;;;5.23;2.93;;;19.50;60.00;;;;;;5049272;28;20282;-81
2022/05/10 06:16:26;;;;;;;4.80;2.90;;;19.50;59.90;;;;;;5021871;28;20471;-80
2022/05/10 06:18:51;;;;;;;5.07;3.07;;;19.70;59.80;;;;;;5032443;28;20469;-80
2022/05/10 06:21:17;;;;;;;4.63;2.95;;;19.80;59.70;;;;;;5029395;28;20114;-80
2022/05/10 06:23:42;;;;;;;4.33;2.77;;;19.80;59.60;;;;;;5032932;28;20055;-80
2022/05/10 06:26:09;;;;;;;5.40;3.10;;;19.90;59.50;;;;;;5030520;28;20073;-81
2022/05/10 06:28:34;;;;;;;5.18;3.20;;;20.00;59.50;;;;;;5036859;28;20230;-80
2022/05/10 06:31:02;;;;;;;5.25;3.00;;;20.10;59.30;;;;;;5054809;28;20054;-80
2022/05/10 06:33:28;;;;;;;4.63;2.88;;;20.20;59.40;;;;;;5052058;28;20024;-80
2022/05/10 06:35:54;;;;;;;5.80;3.23;;;20.30;59.50;;;;;;5036102;28;20051;-81
2022/05/10 06:38:24;;;;;;;5.78;2.90;;;20.40;59.50;;;;;;5038098;28;20036;-80
2022/05/10 06:40:50;;;;;;;4.78;2.58;;;20.50;59.50;;;;;;5038254;28;20404;-81
2022/05/10 06:43:16;;;;;;;4.47;2.80;;;20.50;59.30;;;;;;5036704;28;20036;-81
2022/05/10 06:45:43;;;;;;;6.10;3.10;;;20.60;59.10;;;;;;5056676;28;20149;-80
2022/05/10 06:48:09;;;;;;;4.43;2.83;;;20.70;59.10;;;;;;5034922;28;20477;-80
2022/05/10 06:50:36;;;;;;;4.90;2.97;;;20.80;59.00;;;;;;5038652;28;20296;-80
2022/05/10 06:53:02;;;;;;;4.43;2.80;;;20.90;59.10;;;;;;5060218;28;20572;-80
2022/05/10 06:55:30;;;;;;;5.30;3.00;;;21.10;59.10;;;;;;5038541;28;20052;-80
2022/05/10 06:57:56;;;;;;;6.35;2.90;;;21.10;58.90;;;;;;5032983;28;20044;-80
2022/05/10 07:00:22;;;;;;;3.83;2.80;;;21.20;58.80;;;;;;5045456;28;20085;-81
2022/05/10 07:02:48;;;;;;;4.57;2.70;;;21.40;58.80;;;;;;5038549;28;20157;-80
2022/05/10 07:05:16;;;;;;;4.13;2.63;;;21.50;58.70;;;;;;5059558;28;20437;-81
2022/05/10 07:07:42;;;;;;;5.60;2.85;;;21.60;58.60;;;;;;5049064;28;20112;-80
2022/05/10 07:10:10;;;;;;;5.07;2.85;;;21.70;58.50;;;;;;5076922;28;20031;-81
2022/05/10 07:12:42;;;;;;;4.32;2.72;;;21.90;58.40;;;;;;5035013;28;20068;-81
2022/05/10 07:15:13;;;;;;;6.30;3.20;;;22.00;58.20;;;;;;5033360;28;20048;-81
2022/05/10 07:17:38;;;;;;;4.15;2.70;;;22.10;57.80;;;;;;5022694;28;20248;-81
2022/05/10 07:20:09;;;;;;;5.17;2.70;;;22.10;57.60;;;;;;5035130;28;20036;-81
2022/05/10 07:22:35;;;;;;;4.57;2.80;;;22.20;57.40;;;;;;5067606;28;20300;-81
2022/05/10 07:25:02;;;;;;;5.75;2.65;;;22.30;57.40;;;;;;5048114;28;20037;-81
2022/05/10 07:27:28;;;;;;;5.38;2.50;;;22.30;57.40;;;;;;5057002;28;20035;-81
2022/05/10 07:29:54;;;;;;;4.93;2.80;;;22.40;57.30;;;;;;5019299;28;20389;-81
2022/05/10 07:32:20;;;;;;;3.90;2.67;;;22.50;57.30;;;;;;5054111;28;20029;-81
2022/05/10 07:34:46;;;;;;;5.28;2.72;;;22.50;57.20;;;;;;5027795;28;20348;-82
2022/05/10 07:37:13;;;;;;;4.37;2.73;;;22.60;57.00;;;;;;5059545;28;20170;-81
2022/05/10 07:39:38;;;;;;;5.03;2.95;;;22.60;56.80;;;;;;5041704;28;20281;-81
2022/05/10 07:42:04;;;;;;;4.82;2.88;;;22.70;56.70;;;;;;5030747;28;20048;-81
2022/05/10 07:44:31;;;;;;;4.90;2.60;;;22.80;56.60;;;;;;5020556;28;20138;-81
2022/05/10 07:46:57;;;;;;;4.22;2.67;;;22.80;56.60;;;;;;5035585;28;20388;-80
2022/05/10 07:49:22;;;;;;;5.63;2.45;;;22.90;56.60;;;;;;5048848;28;20035;-81
2022/05/10 07:51:48;;;;;;;7.57;2.83;;;23.00;56.30;;;;;;5052137;28;20761;-81
2022/05/10 07:54:13;;;;;;;4.70;2.65;;;23.00;56.00;;;;;;5062230;28;20401;-80
2022/05/10 07:56:40;;;;;;;5.17;2.73;;;23.00;55.90;;;;;;5043552;28;20108;-81
2022/05/10 07:59:07;;;;;;;3.38;2.45;;;23.10;55.80;;;;;;5039361;28;20028;-81
2022/05/10 08:01:33;;;;;;;4.45;2.50;;;23.10;55.80;;;;;;5050738;28;20048;-81
2022/05/10 08:03:59;;;;;;;3.85;2.35;;;23.10;55.70;;;;;;5032706;28;20489;-81
2022/05/10 08:06:26;;;;;;;5.37;2.70;;;23.20;55.90;;;;;;5065186;28;20029;-81
2022/05/10 08:08:51;;;;;;;5.80;2.85;;;23.30;55.90;;;;;;5058168;28;20249;-81
2022/05/10 08:11:17;;;;;;;4.03;2.38;;;23.40;55.90;;;;;;5038326;28;20028;-81
2022/05/10 08:13:43;;;;;;;3.77;2.60;;;23.50;55.80;;;;;;5036016;28;20063;-81
2022/05/10 08:16:09;;;;;;;4.57;2.42;;;23.50;55.60;;;;;;5007396;28;20060;-81
2022/05/10 08:18:37;;;;;;;2.80;2.35;;;23.60;55.30;;;;;;5041214;28;20036;-81
2022/05/10 08:21:03;;;;;;;5.05;2.40;;;23.70;55.10;;;;;;5018212;28;20032;-80
2022/05/10 08:23:32;;;;;;;3.93;2.30;;;23.70;54.90;;;;;;5035799;28;20509;-81
2022/05/10 08:25:59;;;;;;;3.28;2.47;;;23.80;54.90;;;;;;5056184;28;20178;-81
2022/05/10 08:28:26;;;;;;;4.90;2.20;;;23.80;54.90;;;;;;5034535;28;20399;-82
2022/05/10 08:30:52;;;;;;;4.55;2.58;;;23.90;54.80;;;;;;5055956;28;20497;-81
2022/05/10 08:33:19;;;;;;;3.13;2.55;;;24.00;54.90;;;;;;5023441;28;20250;-82
2022/05/10 08:35:46;;;;;;;3.23;2.30;;;24.10;55.00;;;;;;5029149;28;20500;-81
2022/05/10 08:38:12;;;;;;;3.00;2.17;;;24.20;55.00;;;;;;5041850;28;20041;-81
2022/05/10 08:41:01;;;;;;;3.17;2.17;;;24.30;54.90;;;;;;5029014;28;20040;-81
2022/05/10 08:43:36;;;;;;;3.37;2.27;;;24.40;55.10;;;;;;5032794;28;20709;-81
2022/05/10 08:46:03;;;;;;;2.83;2.20;;;24.60;54.50;;;;;;5023896;28;20976;-81
2022/05/10 08:48:31;;;;;;;4.03;2.40;;;24.70;55.00;;;;;;5020636;28;20029;-81
2022/05/10 08:50:58;;;;;;;3.67;2.40;;;25.00;55.20;;;;;;5033967;28;20224;-81
2022/05/10 08:53:24;;;;;;;2.65;2.30;;;25.20;55.20;;;;;;5045371;28;20039;-81
2022/05/10 08:56:06;;;;;;;4.13;2.47;;;25.50;54.90;;;;;;5053385;28;20036;-81
2022/05/10 08:58:50;;;;;;;4.18;2.47;;;25.70;53.80;;;;;;5059698;28;20162;-82
2022/05/10 09:01:21;;;;;;;2.75;2.22;;;26.10;53.80;;;;;;5044488;28;21382;-81
2022/05/10 09:04:18;;;;;;;3.85;2.33;;;26.40;54.40;;;;;;5053202;28;20032;-80
2022/05/10 09:07:20;;;;;;;3.60;2.60;;;26.80;52.60;;;;;;5045123;28;20052;-82
2022/05/10 09:10:01;;;;;;;2.87;2.30;;;27.30;52.70;;;;;;5075264;28;20094;-82
2022/05/10 09:12:29;;;;;;;3.25;2.33;;;27.80;53.00;;;;;;5054064;28;20056;-82
2022/05/10 09:14:59;;;;;;;6.97;2.60;;;28.10;52.50;;;;;;5044183;28;20048;-80
2022/05/10 09:17:29;;;;;;;3.17;2.42;;;28.40;51.60;;;;;;5033131;28;20044;-81
2022/05/10 09:19:56;;;;;;;5.38;2.65;;;28.70;50.60;;;;;;5025907;28;20079;-80
2022/05/10 09:22:59;;;;;;;4.90;2.60;;;28.80;49.00;;;;;;5021309;28;21415;-81
2022/05/10 09:25:48;;;;;;;4.18;2.80;;;29.00;46.10;;;;;;5057108;28;20049;-81
2022/05/10 09:28:21;;;;;;;4.10;2.90;;;29.10;46.90;;;;;;5050168;28;20327;-81
2022/05/10 09:36:28;;;;;;;2.87;2.50;;;29.30;45.20;;;;;;5035789;28;26308;-82
2022/05/10 09:39:01;;;;;;;3.03;2.60;;;29.20;43.90;;;;;;5031782;28;20032;-80
2022/05/10 09:41:51;;;;;;;4.25;2.72;;;29.10;43.40;;;;;;5050310;28;20079;-81
2022/05/10 09:44:28;;;;;;;5.05;2.83;;;29.00;43.80;;;;;;5045767;28;20078;-81
2022/05/10 09:47:17;;;;;;;3.63;2.80;;;28.90;44.20;;;;;;5038319;28;20063;-82
2022/05/10 09:49:43;;;;;;;4.63;2.87;;;28.90;44.20;;;;;;5062881;28;20020;-82
2022/05/10 09:52:18;;;;;;;2.92;2.58;;;29.00;44.00;;;;;;5036148;28;20032;-82
2022/05/10 09:54:45;;;;;;;4.00;2.70;;;29.00;42.70;;;;;;5037504;28;20592;-80
2022/05/10 09:57:30;;;;;;;2.90;2.60;;;29.00;43.50;;;;;;5038105;28;20021;-82
2022/05/10 09:59:56;;;;;;;5.38;2.80;;;29.10;42.40;;;;;;5059844;28;20326;-81
2022/05/10 10:02:41;;;;;;;3.67;2.90;;;29.20;44.40;;;;;;5048877;28;20028;-81
2022/05/10 10:05:30;;;;;;;5.15;3.05;;;29.30;43.20;;;;;;5035222;28;20442;-81
2022/05/10 10:07:58;;;;;;;3.53;2.90;;;29.50;43.00;;;;;;5036788;28;20028;-82
2022/05/10 10:10:30;;;;;;;4.68;3.15;;;29.80;43.90;;;;;;5032891;28;20032;-82
2022/05/10 10:12:57;;;;;;;2.88;2.42;;;30.00;42.40;;;;;;5030825;28;20032;-81
2022/05/10 10:15:31;;;;;;;3.85;3.20;;;30.10;42.80;;;;;;5037222;28;20515;-84
2022/05/10 10:18:08;;;;;;;3.88;2.78;;;30.20;42.10;;;;;;5019716;28;20237;-83
2022/05/10 10:20:42;;;;;;;3.10;2.67;;;30.30;41.40;;;;;;5051842;28;20044;-82
2022/05/10 10:23:31;;;;;;;3.70;2.75;;;30.30;42.10;;;;;;5039038;28;20036;-82
2022/05/10 10:26:11;;;;;;;4.30;2.78;;;30.40;41.40;;;;;;5036708;28;20162;-81
2022/05/10 10:28:58;;;;;;;3.75;3.00;;;30.50;41.00;;;;;;5051817;28;20086;-82
2022/05/10 10:31:33;;;;;;;3.33;2.63;;;30.70;41.90;;;;;;5028434;28;20033;-81
2022/05/10 10:34:19;;;;;;;4.20;2.77;;;31.00;42.00;;;;;;5043185;28;20704;-81
2022/05/10 10:36:55;;;;;;;2.90;2.60;;;31.20;40.00;;;;;;5052736;28;20686;-82
2022/05/10 10:39:46;;;;;;;3.85;2.50;;;31.50;40.50;;;;;;5038514;28;20139;-81
2022/05/10 10:42:36;;;;;;;3.97;2.95;;;31.70;40.20;;;;;;5056685;28;20493;-82
2022/05/10 10:45:04;;;;;;;3.97;2.42;;;31.80;37.70;;;;;;5035798;28;20276;-82
2022/05/10 10:47:57;;;;;;;3.80;2.50;;;31.70;38.20;;;;;;5043856;28;20562;-82
2022/05/10 10:50:26;;;;;;;4.70;3.00;;;31.50;37.40;;;;;;5041344;28;21465;-81
2022/05/10 10:52:54;;;;;;;3.67;2.60;;;31.40;37.70;;;;;;5034827;28;20037;-82
2022/05/10 10:55:21;;;;;;;3.00;2.30;;;31.20;38.70;;;;;;5027512;28;20044;-83
2022/05/10 10:58:03;;;;;;;3.38;2.90;;;31.10;38.60;;;;;;5048060;28;20485;-81
2022/05/10 11:00:50;;;;;;;4.10;2.90;;;31.00;38.20;;;;;;5054969;28;20367;-82
2022/05/10 11:03:33;;;;;;;3.28;2.60;;;31.00;37.60;;;;;;5036102;28;20360;-80
2022/05/10 11:06:20;;;;;;;3.40;2.50;;;30.90;38.30;;;;;;5036829;28;20041;-81
2022/05/10 11:09:10;;;;;;;2.90;2.17;;;31.00;38.60;;;;;;5052040;28;20130;-82
2022/05/10 11:11:59;;;;;;;3.47;2.70;;;31.00;38.30;;;;;;5029494;28;20274;-83
2022/05/10 11:14:46;;;;;;;2.97;2.50;;;30.90;36.90;;;;;;5024821;28;20118;-83
2022/05/10 11:17:29;;;;;;;2.95;2.65;;;30.80;36.10;;;;;;5030064;28;20484;-82
2022/05/10 11:20:29;;;;;;;3.10;2.80;;;30.70;37.50;;;;;;5046101;28;20044;-81
2022/05/10 11:23:02;;;;;;;2.60;2.40;;;30.80;37.90;;;;;;5063866;28;20572;-83
2022/05/10 11:25:28;;;;;;;3.55;2.80;;;30.80;38.40;;;;;;5035005;28;20375;-82
2022/05/10 11:28:22;;;;;;;3.70;2.80;;;30.80;38.00;;;;;;5026788;28;20119;-82
2022/05/10 11:31:00;;;;;;;2.70;2.50;;;30.80;37.20;;;;;;5030622;28;20063;-83
2022/05/10 11:34:03;;;;;;;2.97;2.53;;;30.60;37.50;;;;;;5054477;28;20299;-81
2022/05/10 11:36:47;;;;;;;3.70;2.50;;;30.50;37.80;;;;;;5031987;28;20288;-82
2022/05/10 11:39:24;;;;;;;5.30;2.80;;;30.50;38.20;;;;;;5052424;28;20595;-81
2022/05/10 11:42:32;;;;;;;2.92;2.63;;;30.60;38.00;;;;;;5035491;28;20547;-82
2022/05/10 11:48:59;;;;;;;4.55;2.83;;;30.80;38.10;;;;;;5050042;28;20067;-81
2022/05/10 11:51:46;;;;;;;5.73;2.83;;;31.00;37.90;;;;;;5041211;28;20037;-83
2022/05/10 11:54:20;;;;;;;3.22;2.75;;;31.10;37.10;;;;;;5031245;28;20031;-83
2022/05/10 11:56:47;;;;;;;3.42;2.70;;;31.10;37.40;;;;;;5063677;28;20025;-82
2022/05/10 11:59:31;;;;;;;3.28;2.58;;;31.00;36.90;;;;;;5012618;28;20046;-82
2022/05/10 12:02:49;;;;;;;4.38;2.50;;;30.90;36.90;;;;;;5036829;28;20028;-83
2022/05/10 12:08:37;;;;;;;4.53;2.65;;;30.70;36.90;;;;;;5032924;28;20123;-82
2022/05/10 12:11:27;;;;;;;2.67;2.30;;;30.60;36.80;;;;;;5033768;28;20025;-82
2022/05/10 12:22:16;;;;;;;3.85;2.50;;;30.30;37.20;;;;;;5039479;28;20033;-82
2022/05/10 12:24:45;;;;;;;3.10;2.42;;;30.30;37.20;;;;;;5053446;28;20052;-81
2022/05/10 12:27:11;;;;;;;2.70;2.10;;;30.20;37.20;;;;;;5025777;28;20378;-81
2022/05/10 12:29:39;;;;;;;2.63;2.33;;;30.10;37.30;;;;;;5046377;28;20086;-81
2022/05/10 12:32:27;;;;;;;3.50;2.70;;;30.10;37.10;;;;;;5032516;28;20036;-82
2022/05/10 12:34:56;;;;;;;3.83;2.30;;;30.00;37.00;;;;;;5045478;28;20033;-82
2022/05/10 12:37:22;;;;;;;3.50;2.63;;;29.90;37.40;;;;;;5043441;28;20363;-81
2022/05/10 12:40:00;;;;;;;3.83;2.80;;;29.90;37.60;;;;;;5029525;28;20036;-82
2022/05/10 12:42:32;;;;;;;3.80;2.85;;;29.80;37.30;;;;;;5044795;28;20137;-82
2022/05/10 12:45:16;;;;;;;3.60;2.80;;;29.80;37.80;;;;;;5032050;28;20025;-82
2022/05/10 12:48:09;;;;;;;3.07;2.77;;;29.80;38.00;;;;;;5031832;28;20062;-82
2022/05/10 12:50:59;;;;;;;3.50;2.88;;;29.80;37.90;;;;;;5050106;28;20040;-81
2022/05/10 12:53:48;;;;;;;3.47;3.10;;;29.90;38.30;;;;;;5036890;28;20129;-82
2022/05/10 12:56:19;;;;;;;4.22;2.92;;;30.00;38.50;;;;;;5048557;28;20058;-81
2022/05/10 12:58:50;;;;;;;3.88;2.65;;;30.10;38.20;;;;;;5025540;28;20033;-81
2022/05/10 13:01:18;;;;;;;4.07;2.80;;;30.10;38.20;;;;;;5049011;28;20040;-82
2022/05/10 13:03:55;;;;;;;3.90;2.95;;;30.30;38.40;;;;;;5031955;28;20049;-82
2022/05/10 13:06:46;;;;;;;3.25;2.55;;;30.30;37.60;;;;;;5036600;28;20583;-82
2022/05/10 13:09:30;;;;;;;4.50;2.78;;;30.30;37.70;;;;;;5023047;28;20123;-83
2022/05/10 13:12:22;;;;;;;3.58;3.22;;;30.30;37.00;;;;;;5069145;28;20033;-80
2022/05/10 13:14:52;;;;;;;3.73;2.83;;;30.30;37.30;;;;;;5041286;28;20428;-81
2022/05/10 13:17:33;;;;;;;3.85;2.70;;;30.40;38.10;;;;;;5037826;28;20513;-82
2022/05/10 13:20:06;;;;;;;3.03;2.70;;;30.50;38.40;;;;;;5031003;28;20028;-83
2022/05/10 13:22:32;;;;;;;4.15;2.78;;;30.60;38.20;;;;;;5059869;28;20081;-82
2022/05/10 13:25:00;;;;;;;4.38;2.88;;;30.80;38.00;;;;;;5035731;28;20329;-80
2022/05/10 13:27:37;;;;;;;4.00;2.60;;;30.90;37.10;;;;;;5026292;28;20720;-83
2022/05/10 13:30:16;;;;;;;3.20;2.30;;;30.90;36.20;;;;;;5023888;28;20528;-83
2022/05/10 13:32:50;;;;;;;3.22;2.40;;;30.90;36.30;;;;;;5055893;28;20162;-82
2022/05/10 13:35:26;;;;;;;3.90;2.70;;;30.80;36.20;;;;;;5028989;28;20205;-81
2022/05/10 13:38:09;;;;;;;4.93;2.78;;;30.80;36.10;;;;;;5070856;28;20075;-82
2022/05/10 13:40:43;;;;;;;2.77;2.20;;;30.70;35.90;;;;;;5022502;28;20481;-82
2022/05/10 13:43:18;;;;;;;2.78;2.40;;;30.60;36.30;;;;;;5035301;28;20124;-82
2022/05/10 13:45:53;;;;;;;4.10;2.53;;;30.60;36.20;;;;;;5031252;28;20059;-81
2022/05/10 13:48:30;;;;;;;2.88;2.30;;;30.50;36.70;;;;;;5044484;28;20033;-83